Time;durP1;ratioP1;P1;durP2;ratioP2;P2;SDS_P1;SDS_P2;PMS_P1;PMS_P2;Temp;Humidity;BMP_temperature;BMP_pressure;BME280_temperature;BME280_humidity;BME280_pressure;Samples;Min_cycle;Max_cycle;Signal;HPM_P1;HPM_P2
2020/12/07 00:01:11;;;;;;;2.92;2.17;;;;;;;19.15;53.66;99896.25;4795536;29;20493;-79
2020/12/07 00:03:36;;;;;;;4.32;2.42;;;;;;;19.14;53.60;99892.75;4808192;29;20117;-78
2020/12/07 00:06:02;;;;;;;3.20;2.20;;;;;;;19.08;53.47;99885.06;4804314;29;20042;-79
2020/12/07 00:08:27;;;;;;;2.63;1.90;;;;;;;19.09;53.63;99880.63;4792711;29;20027;-79
2020/12/07 00:10:52;;;;;;;2.53;1.98;;;;;;;19.11;53.55;99889.34;4798844;29;20072;-78
2020/12/07 00:13:18;;;;;;;2.20;1.70;;;;;;;19.07;53.50;99885.09;4777470;29;20039;-79
2020/12/07 00:15:44;;;;;;;3.15;2.28;;;;;;;19.08;53.46;99879.81;4809094;29;20038;-79
2020/12/07 00:18:10;;;;;;;9.55;2.35;;;;;;;19.09;53.54;99871.03;4825413;29;20035;-79
2020/12/07 00:20:36;;;;;;;4.15;2.00;;;;;;;19.04;53.62;99861.56;4809870;29;20038;-78
2020/12/07 00:23:01;;;;;;;2.47;1.98;;;;;;;19.04;53.70;99858.94;4825557;29;20086;-79
2020/12/07 00:25:26;;;;;;;5.63;2.22;;;;;;;19.04;53.50;99853.69;4794961;29;20045;-78
2020/12/07 00:27:52;;;;;;;3.65;2.42;;;;;;;18.99;53.38;99848.56;4823638;29;20049;-78
2020/12/07 00:30:17;;;;;;;2.70;1.70;;;;;;;19.04;53.44;99848.47;4810206;29;20473;-79
2020/12/07 00:32:43;;;;;;;3.60;2.35;;;;;;;19.03;53.43;99842.34;4822308;29;20091;-78
2020/12/07 00:35:08;;;;;;;3.92;2.20;;;;;;;19.05;53.49;99844.94;4793596;29;20039;-78
2020/12/07 00:37:33;;;;;;;2.97;1.85;;;;;;;18.97;53.60;99824.16;4824066;29;20489;-79
2020/12/07 00:39:59;;;;;;;3.28;1.80;;;;;;;19.02;53.54;99839.78;4805037;29;20034;-78
2020/12/07 00:42:24;;;;;;;3.25;2.10;;;;;;;19.03;53.29;99833.63;4811400;29;20035;-78
2020/12/07 00:44:49;;;;;;;2.85;1.90;;;;;;;19.02;53.33;99829.28;4814982;29;20039;-78
2020/12/07 00:47:15;;;;;;;2.80;1.92;;;;;;;18.97;53.42;99818.91;4809559;29;20046;-79
2020/12/07 00:49:40;;;;;;;3.30;2.10;;;;;;;18.96;53.45;99817.19;4824749;29;20030;-79
2020/12/07 00:52:07;;;;;;;2.70;1.60;;;;;;;19.03;53.17;99815.28;4824752;29;20049;-78
2020/12/07 00:54:33;;;;;;;2.33;1.90;;;;;;;18.92;53.48;99811.16;4815607;29;20052;-79
2020/12/07 00:56:59;;;;;;;3.00;2.33;;;;;;;19.00;53.42;99816.22;4825179;29;20425;-79
2020/12/07 00:59:26;;;;;;;3.03;1.75;;;;;;;18.98;53.26;99804.91;4824410;29;20030;-79
2020/12/07 01:01:53;;;;;;;2.70;2.30;;;;;;;18.99;53.32;99801.41;4824283;29;20033;-79
2020/12/07 01:04:18;;;;;;;2.78;2.25;;;;;;;18.97;53.19;99782.22;4824329;29;20045;-78
2020/12/07 01:06:47;;;;;;;2.40;2.00;;;;;;;18.92;53.18;99764.00;4794274;29;20054;-79
2020/12/07 01:09:13;;;;;;;2.58;1.80;;;;;;;18.94;53.29;99765.75;4805677;29;20050;-79
2020/12/07 01:11:42;;;;;;;2.40;1.63;;;;;;;18.99;53.21;99764.72;4823194;29;20179;-79
2020/12/07 01:14:14;;;;;;;2.42;1.70;;;;;;;18.97;53.19;99763.03;4805839;29;20050;-79
2020/12/07 01:16:40;;;;;;;2.08;1.77;;;;;;;18.97;52.95;99763.88;4821875;29;20065;-78
2020/12/07 01:19:07;;;;;;;2.08;1.45;;;;;;;18.97;53.05;99765.63;4825480;29;20064;-78
2020/12/07 01:21:33;;;;;;;4.57;1.85;;;;;;;18.95;53.26;99763.09;4824666;29;20033;-79
2020/12/07 01:23:59;;;;;;;2.33;1.80;;;;;;;18.92;53.18;99764.00;4823546;29;20041;-79
2020/12/07 01:26:25;;;;;;;2.42;1.63;;;;;;;18.91;53.15;99764.91;4824038;29;20099;-78
2020/12/07 01:28:50;;;;;;;2.53;1.90;;;;;;;18.79;53.21;99743.38;4798586;29;20433;-78
2020/12/07 01:31:17;;;;;;;3.03;2.20;;;;;;;18.90;53.03;99765.81;4789092;29;20504;-78
2020/12/07 01:33:43;;;;;;;3.50;1.90;;;;;;;18.96;52.94;99777.03;4802430;29;20112;-78
2020/12/07 01:36:08;;;;;;;2.80;2.00;;;;;;;18.94;53.12;99779.69;4819480;29;20081;-78
2020/12/07 01:38:34;;;;;;;3.25;1.52;;;;;;;18.89;53.20;99771.94;4803952;29;20034;-78
2020/12/07 01:40:59;;;;;;;1.92;1.50;;;;;;;18.85;53.09;99772.91;4790971;29;20141;-79
2020/12/07 01:43:25;;;;;;;1.77;1.50;;;;;;;18.78;53.11;99771.34;4791472;29;20026;-80
2020/12/07 01:45:50;;;;;;;3.28;1.90;;;;;;;18.86;53.19;99803.44;4791330;29;20087;-79
2020/12/07 01:48:16;;;;;;;2.70;1.77;;;;;;;18.87;53.17;99801.69;4790861;29;20042;-78
2020/12/07 01:50:41;;;;;;;2.38;1.67;;;;;;;18.87;53.01;99804.31;4809279;29;20038;-78
2020/12/07 01:53:09;;;;;;;3.17;1.83;;;;;;;18.87;53.09;99807.78;4806624;29;20030;-78
2020/12/07 01:55:34;;;;;;;2.38;1.73;;;;;;;18.87;52.98;99805.16;4821539;29;20034;-79
2020/12/07 01:58:00;;;;;;;2.38;1.42;;;;;;;18.85;53.15;99791.22;4807012;29;20071;-78
2020/12/07 02:00:25;;;;;;;2.70;1.70;;;;;;;18.83;52.96;99774.69;4792411;29;20034;-78
2020/12/07 02:02:51;;;;;;;2.38;1.63;;;;;;;18.79;52.87;99762.59;4808270;29;20030;-79
2020/12/07 02:05:19;;;;;;;1.80;1.42;;;;;;;18.89;53.36;99773.69;4792370;29;20031;-78
2020/12/07 02:07:45;;;;;;;2.53;1.50;;;;;;;18.89;52.94;99771.06;4777747;29;20111;-79
2020/12/07 02:10:10;;;;;;;1.70;1.40;;;;;;;18.87;53.21;99765.88;4790003;29;20043;-79
2020/12/07 02:12:36;;;;;;;2.28;1.70;;;;;;;18.84;52.89;99757.22;4793112;29;20121;-79
2020/12/07 02:15:01;;;;;;;2.17;1.98;;;;;;;18.81;52.98;99750.31;4823786;29;20053;-79
2020/12/07 02:17:27;;;;;;;4.75;2.13;;;;;;;18.87;53.01;99750.16;4806896;29;20080;-79
2020/12/07 02:19:52;;;;;;;2.17;1.40;;;;;;;18.83;53.11;99740.63;4825939;29;20049;-79
2020/12/07 02:22:17;;;;;;;2.42;1.60;;;;;;;18.83;53.11;99739.78;4807440;29;20070;-78
2020/12/07 02:24:43;;;;;;;2.10;1.40;;;;;;;18.85;52.98;99741.47;4807855;29;20031;-79
2020/12/07 02:27:09;;;;;;;2.63;1.40;;;;;;;18.83;53.09;99742.38;4806843;29;20083;-78
2020/12/07 02:29:35;;;;;;;2.10;1.40;;;;;;;18.86;52.81;99755.44;4820177;29;20062;-79
2020/12/07 02:32:11;;;;;;;2.55;2.08;;;;;;;18.78;52.98;99742.53;4819293;29;20069;-78
2020/12/07 02:34:36;;;;;;;2.72;1.52;;;;;;;18.73;53.16;99733.91;4820889;29;20417;-79
2020/12/07 02:37:01;;;;;;;3.85;1.58;;;;;;;18.81;53.02;99736.34;4811587;29;20038;-78
2020/12/07 02:39:27;;;;;;;3.03;1.60;;;;;;;18.83;53.04;99748.50;4807605;29;20031;-79
2020/12/07 02:41:52;;;;;;;1.70;1.20;;;;;;;18.79;53.13;99735.53;4796301;29;20046;-79
2020/12/07 02:44:17;;;;;;;1.85;1.33;;;;;;;18.82;52.94;99736.31;4792458;29;20045;-78
2020/12/07 02:46:43;;;;;;;2.45;1.50;;;;;;;18.79;52.98;99727.66;4807384;29;20027;-79
2020/12/07 02:49:08;;;;;;;1.75;1.55;;;;;;;18.70;53.05;99720.00;4807911;29;20121;-78
2020/12/07 02:51:33;;;;;;;1.27;0.90;;;;;;;18.81;53.00;99723.25;4792648;29;20129;-79
2020/12/07 02:53:59;;;;;;;1.98;1.30;;;;;;;18.81;52.82;99721.50;4807787;29;20034;-79
2020/12/07 02:56:24;;;;;;;1.65;1.20;;;;;;;18.78;52.73;99710.22;4791911;29;20039;-79
2020/12/07 02:58:49;;;;;;;3.03;1.50;;;;;;;18.79;53.01;99701.47;4780006;29;20398;-79
2020/12/07 03:01:15;;;;;;;1.52;1.40;;;;;;;18.68;52.97;99672.06;4801292;29;20383;-78
2020/12/07 03:03:40;;;;;;;3.00;1.38;;;;;;;18.67;52.99;99663.34;4811454;29;20435;-78
2020/12/07 03:06:05;;;;;;;1.67;1.17;;;;;;;18.73;52.91;99673.66;4795101;29;20073;-79
2020/12/07 03:08:31;;;;;;;1.88;1.27;;;;;;;18.72;53.21;99665.84;4826244;29;20402;-78
2020/12/07 03:10:56;;;;;;;3.15;1.30;;;;;;;18.73;52.89;99667.56;4804391;29;20038;-78
2020/12/07 03:13:21;;;;;;;1.83;1.17;;;;;;;18.75;52.90;99676.25;4811706;29;20045;-79
2020/12/07 03:15:47;;;;;;;2.00;1.10;;;;;;;18.75;52.90;99674.50;4795959;29;20042;-79
2020/12/07 03:18:12;;;;;;;2.00;1.30;;;;;;;18.72;53.03;99677.19;4804968;29;20838;-78
2020/12/07 03:20:37;;;;;;;1.48;1.05;;;;;;;18.77;52.93;99683.19;4808344;29;20129;-79
2020/12/07 03:23:03;;;;;;;2.03;1.35;;;;;;;18.73;52.84;99670.19;4823998;29;20455;-79
2020/12/07 03:25:28;;;;;;;1.67;1.10;;;;;;;18.77;52.85;99679.69;4795731;29;20501;-78
2020/12/07 03:27:53;;;;;;;2.60;1.27;;;;;;;18.73;52.96;99673.66;4818321;29;20105;-78
2020/12/07 03:30:19;;;;;;;1.60;1.25;;;;;;;18.72;52.96;99671.94;4825873;29;20061;-78
2020/12/07 03:32:44;;;;;;;1.60;1.30;;;;;;;18.68;52.71;99665.09;4824441;29;20040;-79
2020/12/07 03:35:09;;;;;;;1.58;1.13;;;;;;;18.71;52.83;99675.44;4809742;29;20069;-79
2020/12/07 03:37:35;;;;;;;1.25;1.00;;;;;;;18.72;53.03;99665.84;4794125;29;20121;-79
2020/12/07 03:40:00;;;;;;;1.35;1.00;;;;;;;18.73;52.87;99668.44;4806299;29;20051;-79
2020/12/07 03:42:25;;;;;;;2.15;1.40;;;;;;;18.72;52.90;99656.22;4807805;29;20109;-78
2020/12/07 03:44:51;;;;;;;3.28;1.08;;;;;;;18.68;52.87;99646.75;4810959;29;20045;-79
2020/12/07 03:47:16;;;;;;;1.42;1.02;;;;;;;18.73;52.96;99650.09;4807016;29;21564;-79
2020/12/07 03:49:41;;;;;;;1.40;0.95;;;;;;;18.72;53.06;99644.88;4824773;29;20448;-78
2020/12/07 03:52:07;;;;;;;2.13;1.10;;;;;;;18.71;52.85;99638.78;4809742;29;20129;-79
2020/12/07 03:54:32;;;;;;;2.67;1.50;;;;;;;18.60;52.92;99608.53;4795279;29;20066;-78
2020/12/07 03:56:57;;;;;;;1.13;0.80;;;;;;;18.73;52.94;99630.91;4825496;29;20057;-78
2020/12/07 03:59:23;;;;;;;1.55;1.02;;;;;;;18.71;53.03;99614.38;4817610;29;20039;-78
2020/12/07 04:01:49;;;;;;;1.60;1.50;;;;;;;18.68;52.77;99611.84;4811953;29;20066;-78
2020/12/07 04:04:18;;;;;;;1.25;0.80;;;;;;;18.71;52.83;99632.69;4806392;29;20743;-79
2020/12/07 04:06:45;;;;;;;1.70;1.10;;;;;;;18.67;53.11;99631.94;4821685;29;20055;-79
2020/12/07 04:09:11;;;;;;;1.30;1.00;;;;;;;18.52;52.86;99587.75;4823117;29;20042;-79
2020/12/07 04:11:36;;;;;;;1.67;0.90;;;;;;;18.70;52.92;99633.59;4820060;29;20105;-79
2020/12/07 04:14:02;;;;;;;1.95;1.67;;;;;;;18.65;53.09;99622.38;4800111;29;20130;-79
2020/12/07 04:16:28;;;;;;;1.45;0.90;;;;;;;18.69;53.11;99638.00;4816863;29;20042;-78
2020/12/07 04:18:53;;;;;;;1.77;1.02;;;;;;;18.69;52.83;99627.53;4817191;29;20087;-78
2020/12/07 04:21:19;;;;;;;2.00;1.15;;;;;;;18.67;52.96;99626.69;4807382;29;20073;-78
2020/12/07 04:23:44;;;;;;;1.67;1.00;;;;;;;18.63;52.98;99619.81;4808220;29;20066;-78
2020/12/07 04:26:09;;;;;;;1.73;1.00;;;;;;;18.69;52.88;99634.53;4790318;29;20038;-79
2020/12/07 04:28:35;;;;;;;1.27;1.00;;;;;;;18.66;52.90;99626.72;4809603;29;20485;-78
2020/12/07 04:31:00;;;;;;;1.15;0.80;;;;;;;18.64;52.81;99618.91;4798027;29;20573;-79
2020/12/07 04:33:26;;;;;;;1.42;0.65;;;;;;;18.65;52.90;99618.00;4812526;29;20034;-79
2020/12/07 04:35:51;;;;;;;1.38;0.98;;;;;;;18.63;52.85;99619.81;4809656;29;20035;-79
2020/12/07 04:38:16;;;;;;;1.42;0.95;;;;;;;18.64;53.16;99623.28;4792936;29;20143;-79
2020/12/07 04:40:42;;;;;;;1.95;1.00;;;;;;;18.64;52.86;99616.28;4816327;29;20095;-78
2020/12/07 04:43:07;;;;;;;1.33;0.90;;;;;;;18.65;53.01;99614.53;4806760;29;20034;-79
2020/12/07 04:45:33;;;;;;;1.50;1.05;;;;;;;18.62;52.89;99614.59;4806088;29;22223;-79
2020/12/07 04:48:00;;;;;;;1.38;1.02;;;;;;;18.62;52.99;99614.59;4820728;29;20031;-78
2020/12/07 04:50:29;;;;;;;1.25;0.90;;;;;;;18.61;52.83;99618.13;4795223;29;20042;-78
2020/12/07 04:52:56;;;;;;;1.05;0.77;;;;;;;18.63;52.91;99619.81;4808918;29;20035;-79
2020/12/07 04:55:22;;;;;;;1.48;0.90;;;;;;;18.60;52.79;99609.41;4825202;29;20029;-79
2020/12/07 04:57:49;;;;;;;2.00;1.05;;;;;;;18.60;52.86;99611.16;4808784;29;20119;-79
2020/12/07 05:00:14;;;;;;;1.40;0.95;;;;;;;18.60;53.10;99613.78;4823259;29;20040;-79
2020/12/07 05:02:40;;;;;;;2.05;0.82;;;;;;;18.59;52.94;99606.81;4825591;29;20038;-79
2020/12/07 05:05:07;;;;;;;2.60;1.42;;;;;;;18.59;52.93;99612.91;4794459;29;20062;-79
2020/12/07 05:07:33;;;;;;;1.10;0.75;;;;;;;18.47;52.81;99589.63;4824193;29;20661;-79
2020/12/07 05:10:01;;;;;;;2.28;0.68;;;;;;;18.57;52.93;99610.28;4796540;29;20098;-79
2020/12/07 05:12:36;;;;;;;1.05;0.75;;;;;;;18.62;52.97;99617.22;4806928;29;20079;-79
2020/12/07 05:15:06;;;;;;;1.35;0.80;;;;;;;18.62;52.63;99609.38;4795765;29;20477;-79
2020/12/07 05:17:31;;;;;;;1.08;0.70;;;;;;;18.68;52.86;99612.72;4805776;29;20031;-79
2020/12/07 05:19:57;;;;;;;1.02;0.88;;;;;;;18.67;52.73;99610.97;4786970;29;20060;-79
2020/12/07 05:22:22;;;;;;;1.48;0.77;;;;;;;18.66;52.73;99603.16;4817460;29;20049;-79
2020/12/07 05:24:51;;;;;;;1.23;0.80;;;;;;;18.76;52.74;99608.13;4806012;29;20035;-78
2020/12/07 05:27:18;;;;;;;1.83;0.80;;;;;;;18.78;52.61;99602.84;4838809;29;20030;-79
2020/12/07 05:32:23;;;;;;;1.17;0.75;;;;;;;18.78;52.46;99587.13;4812226;29;21177;-78
2020/12/07 05:34:48;;;;;;;1.13;0.80;;;;;;;18.82;52.59;99587.03;4802116;29;20038;-79
2020/12/07 05:37:16;;;;;;;1.50;0.70;;;;;;;18.83;52.47;99586.09;4800964;29;20083;-78
2020/12/07 05:39:42;;;;;;;0.90;0.52;;;;;;;18.85;52.40;99586.06;4817485;29;20062;-78
2020/12/07 05:42:07;;;;;;;1.80;0.80;;;;;;;18.93;52.54;99586.75;4802188;29;20030;-79
2020/12/07 05:44:34;;;;;;;1.38;0.73;;;;;;;18.92;52.48;99583.25;4794658;29;20042;-76
2020/12/07 05:47:01;;;;;;;2.25;1.02;;;;;;;18.94;52.43;99588.47;4818551;29;20031;-78
2020/12/07 05:49:28;;;;;;;1.45;0.85;;;;;;;19.04;52.18;99586.44;4805608;29;20037;-77
2020/12/07 05:52:03;;;;;;;1.15;0.70;;;;;;;18.94;52.22;99580.59;4826154;29;20312;-77
2020/12/07 05:54:29;;;;;;;1.33;0.85;;;;;;;18.97;52.33;99597.97;4824935;29;20033;-77
2020/12/07 05:57:02;;;;;;;1.10;0.75;;;;;;;18.97;52.32;99598.84;4818771;29;20038;-76
2020/12/07 05:59:31;;;;;;;3.93;1.20;;;;;;;19.09;52.13;99608.97;4822813;29;20038;-76
2020/12/07 06:01:58;;;;;;;0.80;0.63;;;;;;;19.10;52.36;99600.22;4823120;29;20034;-76
2020/12/07 06:04:25;;;;;;;1.30;0.82;;;;;;;19.07;52.17;99589.84;4813978;29;20069;-76
2020/12/07 06:06:51;;;;;;;1.40;0.88;;;;;;;19.12;52.23;99595.81;4805220;29;20073;-76
2020/12/07 06:09:23;;;;;;;2.78;1.02;;;;;;;19.13;52.30;99596.66;4809065;29;20053;-78
2020/12/07 06:11:57;;;;;;;1.48;0.70;;;;;;;19.11;52.38;99596.72;4826219;29;20041;-78
2020/12/07 06:14:23;;;;;;;1.23;0.80;;;;;;;19.12;52.32;99593.19;4823512;29;20506;-77
2020/12/07 06:16:51;;;;;;;3.90;1.13;;;;;;;19.16;52.13;99589.59;4822855;29;20039;-77
2020/12/07 06:19:18;;;;;;;2.45;1.23;;;;;;;19.08;52.48;99559.28;4833150;29;20050;-77
2020/12/07 06:21:57;;;;;;;4.15;1.50;;;;;;;19.12;52.54;99571.38;4804157;29;20091;-78
2020/12/07 06:24:35;;;;;;;4.18;1.40;;;;;;;19.12;52.45;99558.25;4802622;29;20049;-79
2020/12/07 06:27:06;;;;;;;6.07;1.88;;;;;;;19.19;52.65;99572.94;4816773;29;20022;-78
2020/12/07 06:29:32;;;;;;;4.28;1.50;;;;;;;19.13;52.49;99557.38;4821004;29;20451;-78
2020/12/07 06:31:58;;;;;;;5.95;2.35;;;;;;;19.22;52.44;99562.34;4804390;29;20037;-79
2020/12/07 06:34:41;;;;;;;9.20;2.83;;;;;;;19.19;52.62;99555.44;4823246;29;20034;-79
2020/12/07 06:37:12;;;;;;;3.35;1.83;;;;;;;19.19;52.20;99562.44;4820286;29;20126;-78
2020/12/07 06:39:46;;;;;;;4.00;1.63;;;;;;;19.26;52.56;99561.34;4823178;29;20030;-79
2020/12/07 06:42:15;;;;;;;4.22;1.63;;;;;;;19.16;52.47;99550.28;4820452;29;20026;-79
2020/12/07 06:44:45;;;;;;;4.18;2.35;;;;;;;19.22;52.80;99565.81;4813029;29;20026;-79
2020/12/07 06:47:24;;;;;;;3.95;2.25;;;;;;;19.19;52.47;99551.97;4831006;29;20083;-78
2020/12/07 06:49:55;;;;;;;5.22;1.95;;;;;;;19.19;52.44;99550.19;4845616;29;20436;-78
2020/12/07 06:52:23;;;;;;;3.50;1.48;;;;;;;19.16;52.69;99558.16;4819085;29;20035;-79
2020/12/07 06:57:51;;;;;;;5.13;1.95;;;;;;;19.28;52.41;99568.28;4808590;29;20034;-79
2020/12/07 07:00:20;;;;;;;3.30;1.85;;;;;;;19.25;52.40;99578.84;4826495;29;20039;-80
2020/12/07 07:02:46;;;;;;;1.85;1.50;;;;;;;19.29;52.56;99582.25;4821891;29;20102;-79
2020/12/07 07:05:13;;;;;;;3.00;1.27;;;;;;;19.26;52.40;99591.06;4819586;29;20390;-79
2020/12/07 07:07:39;;;;;;;3.38;1.50;;;;;;;19.23;52.35;99593.75;4799655;29;20127;-79
2020/12/07 07:10:07;;;;;;;3.63;1.83;;;;;;;19.22;52.32;99584.16;4811376;29;20030;-79
2020/12/07 07:12:33;;;;;;;3.58;1.30;;;;;;;19.30;52.04;99593.59;4778110;29;20035;-79
2020/12/07 07:14:58;;;;;;;2.47;1.42;;;;;;;19.25;52.28;99598.94;4819560;29;20042;-78
2020/12/07 07:17:32;;;;;;;2.65;1.15;;;;;;;19.30;52.26;99601.47;4806701;29;20047;-79
2020/12/07 07:19:59;;;;;;;2.50;1.17;;;;;;;19.31;52.33;99595.31;4815599;29;20431;-79
2020/12/07 07:22:25;;;;;;;5.13;1.50;;;;;;;19.28;52.27;99593.63;4819456;29;20035;-78
2020/12/07 07:30:36;;;;;;;3.13;1.80;;;;;;;19.25;52.43;99593.72;4807981;29;20035;-79
2020/12/07 07:33:02;;;;;;;3.17;1.30;;;;;;;19.28;52.54;99591.88;4810319;29;20042;-79
2020/12/07 07:35:29;;;;;;;2.25;1.10;;;;;;;19.34;52.34;99596.09;4785435;29;20143;-78
2020/12/07 07:37:55;;;;;;;2.78;1.48;;;;;;;19.32;52.34;99603.13;4818159;29;20030;-78
2020/12/07 07:40:26;;;;;;;3.08;1.65;;;;;;;19.28;52.35;99598.88;4821449;29;20023;-79
2020/12/07 07:42:56;;;;;;;3.00;1.33;;;;;;;19.36;52.19;99599.50;4822467;29;20030;-79
2020/12/07 07:45:24;;;;;;;3.08;1.50;;;;;;;19.34;52.15;99606.59;4820627;29;20067;-79
2020/12/07 08:15:53;;;;;;;1.17;0.90;;;;;;;19.38;52.00;99589.84;4822402;29;20418;-79
2020/12/07 08:18:32;;;;;;;2.05;0.88;;;;;;;19.39;52.05;99591.56;4810038;29;20037;-78
2020/12/07 08:21:03;;;;;;;4.43;1.50;;;;;;;19.32;51.88;99589.16;4820251;29;20030;-79
2020/12/07 08:23:32;;;;;;;2.03;1.10;;;;;;;19.27;52.12;99581.44;4819176;29;20035;-78
2020/12/07 08:25:59;;;;;;;1.40;0.88;;;;;;;19.37;52.14;99597.75;4821587;29;20030;-78
2020/12/07 08:28:33;;;;;;;1.55;1.00;;;;;;;19.35;52.01;99599.53;4851091;29;20791;-78
2020/12/07 08:31:12;;;;;;;1.77;0.95;;;;;;;19.15;51.96;99576.53;4812817;29;20034;-78
2020/12/07 08:33:57;;;;;;;1.75;1.02;;;;;;;19.33;51.96;99607.47;4828770;29;20033;-78
2020/12/07 08:36:24;;;;;;;2.40;1.25;;;;;;;19.38;51.81;99615.19;4824095;29;20129;-78
2020/12/07 08:38:50;;;;;;;1.70;1.10;;;;;;;19.36;52.02;99622.25;4818630;29;20022;-78
2020/12/07 08:41:17;;;;;;;1.33;0.88;;;;;;;19.39;51.63;99623.03;4809220;29;20066;-78
2020/12/07 08:43:44;;;;;;;2.05;0.98;;;;;;;19.38;51.73;99626.53;4825695;29;20030;-79
2020/12/07 08:46:13;;;;;;;1.48;0.80;;;;;;;19.33;51.91;99620.59;4807136;29;20094;-79
2020/12/07 08:48:39;;;;;;;1.48;0.70;;;;;;;19.36;51.89;99632.72;4827504;29;20129;-78
2020/12/07 08:51:05;;;;;;;2.25;1.10;;;;;;;19.36;51.82;99623.09;4824267;29;20479;-78
2020/12/07 08:53:31;;;;;;;1.13;0.80;;;;;;;19.35;51.86;99634.47;4808972;29;20508;-78
2020/12/07 08:55:57;;;;;;;2.28;0.88;;;;;;;19.39;51.75;99632.66;4808389;29;20081;-78
2020/12/07 08:58:22;;;;;;;1.20;0.70;;;;;;;19.36;51.80;99630.97;4823913;29;20048;-78
2020/12/07 09:00:48;;;;;;;1.10;0.77;;;;;;;19.36;51.87;99637.97;4809025;29;20156;-78
2020/12/07 09:03:13;;;;;;;1.83;0.90;;;;;;;19.33;51.81;99628.44;4784126;29;20061;-78
2020/12/07 09:05:39;;;;;;;2.22;0.90;;;;;;;19.40;51.59;99642.22;4823529;29;20050;-78
2020/12/07 09:08:08;;;;;;;4.57;1.10;;;;;;;19.34;51.67;99631.94;4822659;29;20054;-79
2020/12/07 09:10:34;;;;;;;1.10;0.80;;;;;;;19.31;51.73;99637.25;4806942;29;20125;-79
2020/12/07 09:13:00;;;;;;;2.03;0.70;;;;;;;19.28;51.73;99638.19;4805097;29;20042;-79
2020/12/07 09:15:26;;;;;;;1.80;0.70;;;;;;;19.21;51.88;99634.84;4823791;29;20049;-78
2020/12/07 09:17:51;;;;;;;1.30;0.68;;;;;;;19.17;51.74;99625.38;4797530;29;20374;-78
2020/12/07 09:20:16;;;;;;;1.98;0.75;;;;;;;19.11;51.82;99616.81;4794449;29;20029;-78
2020/12/07 09:22:42;;;;;;;1.10;0.90;;;;;;;19.12;51.94;99627.25;4808746;29;20042;-78
2020/12/07 09:25:07;;;;;;;1.00;0.90;;;;;;;19.14;52.04;99638.56;4804365;29;20186;-78
2020/12/07 09:27:33;;;;;;;0.90;0.60;;;;;;;19.11;51.85;99632.53;4811736;29;20434;-78
2020/12/07 09:29:58;;;;;;;1.52;0.68;;;;;;;19.13;51.96;99641.22;4809582;29;20482;-78
2020/12/07 09:32:24;;;;;;;1.60;0.90;;;;;;;19.11;51.92;99648.25;4794468;29;20034;-78
2020/12/07 09:35:01;;;;;;;0.88;0.57;;;;;;;19.03;51.95;99634.50;4810032;29;20497;-78
2020/12/07 09:37:26;;;;;;;0.90;0.80;;;;;;;18.96;51.75;99628.53;4799877;29;20439;-79
2020/12/07 09:39:57;;;;;;;0.98;0.60;;;;;;;18.77;52.00;99607.22;4808014;29;20128;-78
2020/12/07 09:42:22;;;;;;;1.85;0.80;;;;;;;19.04;51.99;99658.06;4824392;29;20042;-78
2020/12/07 09:44:47;;;;;;;2.38;1.05;;;;;;;19.02;51.84;99651.13;4794609;29;20386;-78
2020/12/07 09:47:13;;;;;;;1.45;0.93;;;;;;;18.95;51.92;99645.19;4783236;29;20090;-78
2020/12/07 09:49:38;;;;;;;1.45;0.75;;;;;;;18.99;51.78;99651.19;4822982;29;20034;-78
2020/12/07 09:52:11;;;;;;;1.85;0.63;;;;;;;18.88;51.79;99631.38;4807327;29;20050;-79
2020/12/07 09:55:04;;;;;;;1.92;0.73;;;;;;;18.74;51.96;99604.69;4822674;29;20037;-79
2020/12/07 09:57:36;;;;;;;1.05;0.70;;;;;;;18.91;51.78;99627.84;4802431;29;20098;-76
2020/12/07 10:00:05;;;;;;;1.27;0.73;;;;;;;19.00;51.79;99640.69;4822998;29;20038;-76
2020/12/07 10:02:31;;;;;;;1.48;0.70;;;;;;;18.88;51.68;99631.38;4829979;29;20030;-76
2020/12/07 10:04:56;;;;;;;1.40;0.75;;;;;;;18.98;51.61;99636.38;4803888;29;20042;-76
2020/12/07 10:07:22;;;;;;;0.90;0.60;;;;;;;18.92;51.74;99624.31;4822025;29;20130;-76
2020/12/07 10:09:47;;;;;;;1.77;0.57;;;;;;;18.92;51.72;99630.41;4795769;29;20030;-77
2020/12/07 10:12:13;;;;;;;1.48;0.82;;;;;;;18.97;51.83;99629.41;4806845;29;20042;-77
2020/12/07 10:14:38;;;;;;;0.85;0.57;;;;;;;18.96;51.61;99631.16;4823509;29;20034;-76
2020/12/07 10:17:04;;;;;;;1.63;0.63;;;;;;;18.80;51.63;99615.00;4822182;29;20034;-78
2020/12/07 10:19:30;;;;;;;1.77;1.25;;;;;;;18.98;51.74;99639.00;4794432;29;20433;-78
2020/12/07 10:21:55;;;;;;;1.80;0.80;;;;;;;18.90;51.66;99637.44;4822407;29;20070;-79
2020/12/07 10:24:21;;;;;;;1.58;0.80;;;;;;;18.72;51.75;99603.84;4807875;29;20094;-78
2020/12/07 10:26:47;;;;;;;0.70;0.65;;;;;;;18.95;51.66;99636.47;4807443;29;20066;-79
2020/12/07 10:29:13;;;;;;;2.05;1.10;;;;;;;18.95;51.69;99652.19;4822072;29;20034;-79
2020/12/07 10:31:38;;;;;;;0.90;0.50;;;;;;;18.85;51.76;99635.81;4821706;29;20038;-78
2020/12/07 10:34:04;;;;;;;1.75;1.33;;;;;;;18.93;51.67;99644.38;4795690;29;20603;-78
2020/12/07 10:36:29;;;;;;;1.42;0.80;;;;;;;18.89;51.66;99635.72;4807878;29;20034;-78
2020/12/07 10:38:58;;;;;;;1.35;0.90;;;;;;;18.90;51.76;99636.59;4795653;29;20043;-78
2020/12/07 10:41:27;;;;;;;0.68;0.45;;;;;;;18.69;51.59;99603.09;4799944;29;20034;-79
2020/12/07 10:43:53;;;;;;;1.50;0.98;;;;;;;18.89;51.46;99629.63;4822774;29;20102;-79
2020/12/07 10:46:19;;;;;;;1.77;0.90;;;;;;;18.85;51.71;99623.59;4803734;29;20134;-78
2020/12/07 10:48:44;;;;;;;0.82;0.50;;;;;;;18.88;51.40;99631.38;4819201;29;20038;-78
2020/12/07 10:51:14;;;;;;;1.40;0.93;;;;;;;18.86;51.67;99622.69;4788785;29;20577;-79
2020/12/07 10:53:40;;;;;;;0.98;0.50;;;;;;;18.67;51.32;99592.66;4807005;29;20026;-79
2020/12/07 10:56:09;;;;;;;1.52;0.60;;;;;;;18.79;51.77;99607.19;4834831;29;20109;-79
2020/12/07 10:58:39;;;;;;;0.98;0.50;;;;;;;18.93;51.49;99618.19;4826952;29;20038;-79
2020/12/07 11:01:05;;;;;;;1.63;1.13;;;;;;;18.94;51.83;99622.50;4815541;29;20038;-76
2020/12/07 11:03:30;;;;;;;0.98;0.95;;;;;;;18.79;51.84;99597.56;4830563;29;20046;-75
2020/12/07 11:05:57;;;;;;;2.33;1.77;;;;;;;18.94;51.58;99622.50;4815394;29;20038;-77
2020/12/07 11:08:34;;;;;;;4.18;2.58;;;;;;;18.89;51.58;99617.38;4811227;29;20673;-76
2020/12/07 11:11:00;;;;;;;4.53;3.42;;;;;;;18.90;51.63;99623.50;4807057;29;20043;-77
2020/12/07 11:13:30;;;;;;;5.68;3.47;;;;;;;18.79;51.84;99609.81;4813658;29;20053;-77
2020/12/07 11:16:00;;;;;;;6.18;4.03;;;;;;;18.85;51.79;99623.59;4826266;29;20509;-76
2020/12/07 11:18:26;;;;;;;4.88;3.67;;;;;;;18.85;51.93;99634.06;4810684;29;20034;-77
2020/12/07 11:20:51;;;;;;;5.38;3.33;;;;;;;18.81;51.88;99624.59;4826869;29;20430;-77
2020/12/07 11:23:17;;;;;;;5.30;3.60;;;;;;;18.82;51.89;99634.19;4825003;29;20037;-77
2020/12/07 11:25:42;;;;;;;5.22;3.88;;;;;;;18.82;51.96;99636.78;4810601;29;20121;-77
2020/12/07 11:28:07;;;;;;;4.97;3.22;;;;;;;18.83;52.05;99637.63;4809991;29;20389;-77
2020/12/07 11:30:33;;;;;;;5.03;3.25;;;;;;;18.82;51.78;99628.94;4782629;29;20473;-77
2020/12/07 11:32:58;;;;;;;4.25;3.35;;;;;;;18.81;52.08;99619.34;4794519;29;20035;-77
2020/12/07 11:35:23;;;;;;;6.60;3.45;;;;;;;18.83;51.77;99628.00;4795309;29;20145;-76
2020/12/07 11:37:55;;;;;;;5.28;3.20;;;;;;;18.81;52.03;99619.34;4802855;29;20096;-77
2020/12/07 11:40:45;;;;;;;5.15;3.63;;;;;;;18.81;51.82;99619.34;4794949;29;20550;-78
2020/12/07 11:45:31;;;;;;;4.38;3.03;;;;;;;18.82;51.83;99625.47;4824435;29;20031;-77
2020/12/07 11:47:56;;;;;;;4.20;2.65;;;;;;;18.79;51.67;99618.53;4809461;29;20034;-77
2020/12/07 11:50:21;;;;;;;8.23;2.95;;;;;;;18.74;51.62;99609.06;4793172;29;20125;-76
2020/12/07 11:52:47;;;;;;;3.85;2.67;;;;;;;18.81;51.78;99627.22;4795030;29;20029;-76
2020/12/07 11:55:12;;;;;;;3.20;2.50;;;;;;;18.73;51.80;99609.94;4820238;29;20049;-78
2020/12/07 11:57:37;;;;;;;3.83;2.65;;;;;;;18.78;51.71;99622.03;4822543;29;20423;-78
2020/12/07 12:00:04;;;;;;;2.95;2.17;;;;;;;18.77;51.67;99622.94;4788241;29;20501;-77
2020/12/07 12:02:29;;;;;;;4.28;2.30;;;;;;;18.80;51.79;99620.25;4824616;29;20038;-75
2020/12/07 12:04:54;;;;;;;5.43;2.42;;;;;;;18.78;51.90;99608.94;4825003;29;20043;-76
2020/12/07 12:07:20;;;;;;;4.30;2.80;;;;;;;18.78;51.65;99603.72;4811333;29;20054;-76
2020/12/07 12:09:46;;;;;;;3.95;2.33;;;;;;;18.88;51.71;99609.56;4823792;29;20034;-76
2020/12/07 12:12:11;;;;;;;3.83;2.35;;;;;;;18.87;51.54;99608.69;4826283;29;20049;-76
2020/12/07 12:14:37;;;;;;;2.67;1.90;;;;;;;18.92;51.57;99612.06;4812453;29;20076;-76